Time;durP1;ratioP1;P1;durP2;ratioP2;P2;SDS_P1;SDS_P2;PMS_P1;PMS_P2;Temp;Humidity;BMP_temperature;BMP_pressure;BME280_temperature;BME280_humidity;BME280_pressure;Samples;Min_cycle;Max_cycle;Signal;HPM_P1;HPM_P2
2023/08/23 00:00:45;;;;;;;4.53;3.87;;;18.10;92.60;;;;;;8326702;28;20210;-65
2023/08/23 00:04:45;;;;;;;4.57;3.63;;;18.20;1.00;;;;;;8310987;28;20239;-65
2023/08/23 00:08:46;;;;;;;3.97;3.37;;;18.10;99.90;;;;;;8322911;28;20233;-66
2023/08/23 00:12:49;;;;;;;3.93;3.53;;;18.10;99.90;;;;;;8325443;28;20196;-65
2023/08/23 00:16:50;;;;;;;4.20;3.80;;;18.10;99.90;;;;;;8319878;28;20217;-65
2023/08/23 00:20:51;;;;;;;6.63;4.03;;;18.10;99.90;;;;;;8328538;28;20241;-64
2023/08/23 00:24:51;;;;;;;3.70;3.40;;;18.00;71.80;;;;;;8328608;28;20201;-64
2023/08/23 00:28:52;;;;;;;4.03;3.73;;;18.00;1.00;;;;;;8311828;28;20301;-65
2023/08/23 00:32:53;;;;;;;4.00;3.70;;;18.00;1.00;;;;;;8327851;28;20186;-63
2023/08/23 00:36:54;;;;;;;3.77;3.47;;;17.90;1.00;;;;;;8309038;28;20320;-63
2023/08/23 00:40:54;;;;;;;3.77;3.43;;;17.90;1.00;;;;;;8322596;28;20216;-64
2023/08/23 00:44:55;;;;;;;4.20;3.80;;;17.90;1.00;;;;;;8322774;28;20308;-63
2023/08/23 00:48:56;;;;;;;4.97;4.03;;;17.90;99.90;;;;;;8326101;28;20186;-64
2023/08/23 00:52:57;;;;;;;4.83;3.67;;;17.90;99.90;;;;;;8323541;28;20214;-65
2023/08/23 00:57:01;;;;;;;5.03;3.80;;;17.80;99.90;;;;;;8319038;28;20190;-63
2023/08/23 01:01:02;;;;;;;4.57;3.70;;;17.80;99.90;;;;;;8310949;28;20221;-62
2023/08/23 01:05:03;;;;;;;3.80;3.50;;;17.70;1.00;;;;;;8323476;28;20202;-63
2023/08/23 01:09:23;;;;;;;6.10;4.33;;;17.70;1.00;;;;;;8322482;28;20205;-63
2023/08/23 01:13:31;;;;;;;4.00;3.70;;;17.60;1.00;;;;;;8323309;28;20224;-64
2023/08/23 01:17:32;;;;;;;4.40;4.00;;;17.50;1.80;;;;;;8322432;28;20186;-63
2023/08/23 01:21:37;;;;;;;3.77;3.33;;;17.50;64.30;;;;;;8326015;28;20208;-63
2023/08/23 01:25:52;;;;;;;4.00;3.60;;;17.40;99.90;;;;;;8306799;28;20186;-64
2023/08/23 01:29:53;;;;;;;3.50;3.20;;;17.30;99.90;;;;;;8319293;28;20267;-63
2023/08/23 01:34:04;;;;;;;3.47;3.17;;;17.30;1.00;;;;;;8310455;28;20194;-63
2023/08/23 01:38:06;;;;;;;4.00;3.60;;;17.20;1.00;;;;;;8323424;28;20206;-64
2023/08/23 01:42:08;;;;;;;4.97;3.47;;;17.10;99.90;;;;;;8329182;28;20179;-65
2023/08/23 01:46:09;;;;;;;3.70;3.30;;;17.00;1.00;;;;;;8317822;28;20181;-65
2023/08/23 01:50:10;;;;;;;5.33;3.60;;;16.90;17.80;;;;;;8319728;28;20563;-63
2023/08/23 01:54:10;;;;;;;4.83;3.73;;;16.80;1.00;;;;;;8324456;28;20182;-62
2023/08/23 01:58:11;;;;;;;5.03;4.13;;;16.70;99.90;;;;;;8321805;28;20216;-63
2023/08/23 02:02:12;;;;;;;4.70;3.70;;;16.70;99.90;;;;;;8307187;28;20263;-65
2023/08/23 02:06:12;;;;;;;6.17;3.90;;;16.70;99.90;;;;;;8317342;28;20233;-64
2023/08/23 02:10:13;;;;;;;6.00;3.97;;;16.70;1.00;;;;;;8323421;28;20221;-65
2023/08/23 02:14:14;;;;;;;4.67;3.47;;;16.70;1.00;;;;;;8308150;28;20182;-65
2023/08/23 02:18:14;;;;;;;4.80;3.70;;;16.60;99.90;;;;;;8322266;28;20217;-65
2023/08/23 02:22:15;;;;;;;4.10;3.70;;;16.40;1.00;;;;;;8304501;28;20229;-65
2023/08/23 02:26:16;;;;;;;4.63;3.67;;;16.30;99.90;;;;;;8307029;28;20221;-65
2023/08/23 02:30:17;;;;;;;5.47;4.10;;;16.20;99.90;;;;;;8303562;28;20193;-65
2023/08/23 02:34:17;;;;;;;4.00;3.60;;;16.10;99.90;;;;;;8322451;28;20185;-65
2023/08/23 02:38:18;;;;;;;3.50;3.20;;;15.90;99.90;;;;;;8328317;28;20207;-64
2023/08/23 02:42:19;;;;;;;3.43;3.13;;;15.80;99.90;;;;;;8322814;28;20217;-64
2023/08/23 02:46:20;;;;;;;3.77;3.47;;;15.70;99.90;;;;;;8323195;28;20174;-65
2023/08/23 02:50:21;;;;;;;3.77;3.47;;;15.70;99.90;;;;;;8306420;28;20179;-65
2023/08/23 02:54:21;;;;;;;5.87;4.00;;;15.60;99.90;;;;;;8301894;28;20190;-65
2023/08/23 02:58:22;;;;;;;3.33;3.03;;;15.50;99.90;;;;;;8314446;28;20205;-65
2023/08/23 03:02:23;;;;;;;4.20;3.80;;;15.50;99.90;;;;;;8322424;28;20185;-64
2023/08/23 03:06:24;;;;;;;4.03;3.67;;;15.40;99.90;;;;;;8310364;28;20193;-62
2023/08/23 03:10:24;;;;;;;5.10;3.87;;;15.40;99.90;;;;;;8315290;28;20202;-64
2023/08/23 03:14:25;;;;;;;4.47;3.87;;;15.30;99.90;;;;;;8317637;28;20284;-64
2023/08/23 03:18:26;;;;;;;3.73;3.43;;;15.30;99.90;;;;;;8317740;28;20202;-63
2023/08/23 03:22:27;;;;;;;3.63;3.33;;;15.20;99.90;;;;;;8323850;28;20194;-64
2023/08/23 03:26:28;;;;;;;4.13;3.17;;;15.20;99.90;;;;;;8313135;28;20608;-63
2023/08/23 03:30:28;;;;;;;4.10;3.50;;;15.10;99.90;;;;;;8321884;28;20194;-63
2023/08/23 03:34:29;;;;;;;4.90;3.37;;;15.00;99.90;;;;;;8302050;28;20186;-64
2023/08/23 03:38:30;;;;;;;3.90;3.37;;;14.90;99.90;;;;;;8313276;28;20218;-62
2023/08/23 03:42:31;;;;;;;4.47;3.73;;;14.80;99.90;;;;;;8325585;28;20183;-63
2023/08/23 03:46:32;;;;;;;4.20;3.40;;;14.70;99.90;;;;;;8308728;28;20200;-63
2023/08/23 03:50:34;;;;;;;4.60;4.10;;;14.70;99.90;;;;;;8319160;28;20246;-65
2023/08/23 03:54:35;;;;;;;5.13;4.10;;;14.70;99.90;;;;;;8322428;28;20182;-64
2023/08/23 03:58:36;;;;;;;3.63;3.33;;;14.70;99.90;;;;;;8305746;28;20217;-63
2023/08/23 04:02:36;;;;;;;4.37;3.87;;;14.70;99.90;;;;;;8318989;28;20190;-63
2023/08/23 04:06:38;;;;;;;4.10;3.67;;;14.60;99.90;;;;;;8310787;28;20214;-63
2023/08/23 04:10:39;;;;;;;5.07;3.67;;;14.60;99.90;;;;;;8318154;28;20214;-67
2023/08/23 04:14:39;;;;;;;4.40;4.00;;;14.60;99.90;;;;;;8325059;28;20356;-66
2023/08/23 04:18:40;;;;;;;5.23;4.03;;;14.60;99.90;;;;;;8319218;28;20211;-65
2023/08/23 04:22:41;;;;;;;5.27;4.37;;;14.70;99.90;;;;;;8314579;28;20280;-66
2023/08/23 04:26:41;;;;;;;5.20;4.70;;;14.80;99.90;;;;;;8323231;28;20201;-65
2023/08/23 04:30:42;;;;;;;6.20;4.83;;;15.10;99.90;;;;;;8326530;28;20186;-65
2023/08/23 04:34:43;;;;;;;6.13;4.67;;;15.50;99.90;;;;;;8314387;28;20205;-66
2023/08/23 04:38:44;;;;;;;7.53;5.17;;;15.80;99.90;;;;;;8315643;28;20221;-66
2023/08/23 04:42:44;;;;;;;4.23;3.83;;;16.10;99.90;;;;;;8325471;28;20641;-65
2023/08/23 04:46:45;;;;;;;5.07;4.33;;;16.40;99.90;;;;;;8308237;28;20236;-65
2023/08/23 04:50:54;;;;;;;5.23;4.00;;;16.70;99.90;;;;;;8325647;28;20190;-65
2023/08/23 04:54:54;;;;;;;6.33;4.53;;;17.00;99.90;;;;;;8312976;28;20295;-65
2023/08/23 04:58:55;;;;;;;3.77;3.37;;;17.20;99.90;;;;;;8302507;28;20214;-66
2023/08/23 05:02:56;;;;;;;5.33;3.33;;;17.20;99.90;;;;;;8323817;28;20221;-66
2023/08/23 05:06:57;;;;;;;4.20;3.80;;;17.20;99.90;;;;;;8325477;28;20182;-66
2023/08/23 05:10:57;;;;;;;6.00;3.53;;;17.10;99.90;;;;;;8319031;28;20297;-65
2023/08/23 05:14:58;;;;;;;4.47;3.23;;;17.00;99.90;;;;;;8324602;28;20198;-64
2023/08/23 05:18:59;;;;;;;7.50;3.80;;;17.00;99.90;;;;;;8305711;28;20222;-65
2023/08/23 05:23:00;;;;;;;4.53;3.70;;;17.10;99.90;;;;;;8325385;28;20194;-64
2023/08/23 05:27:01;;;;;;;4.53;4.00;;;17.10;99.90;;;;;;8329508;28;20186;-63
2023/08/23 05:31:02;;;;;;;6.67;3.77;;;17.10;99.90;;;;;;8328636;28;21008;-64
2023/08/23 05:35:03;;;;;;;7.07;4.00;;;17.10;99.90;;;;;;8312032;28;20197;-65
2023/08/23 05:39:04;;;;;;;6.40;4.57;;;17.20;99.90;;;;;;8295063;28;20304;-64
2023/08/23 05:43:06;;;;;;;9.10;4.70;;;17.40;99.90;;;;;;8303189;28;20187;-65
2023/08/23 05:47:06;;;;;;;7.27;4.80;;;17.60;99.90;;;;;;8308003;28;20191;-65
2023/08/23 05:51:07;;;;;;;7.70;4.60;;;17.80;99.90;;;;;;8323174;28;20198;-65
2023/08/23 05:55:09;;;;;;;7.83;4.23;;;18.00;99.90;;;;;;8303269;28;20193;-65
2023/08/23 05:59:10;;;;;;;4.20;3.80;;;18.10;99.90;;;;;;8300220;28;20242;-66
2023/08/23 06:03:10;;;;;;;6.30;3.97;;;18.30;99.90;;;;;;8314917;28;20182;-65
2023/08/23 06:07:11;;;;;;;7.50;4.17;;;18.50;99.90;;;;;;8324634;28;20186;-66
2023/08/23 06:11:12;;;;;;;5.20;3.93;;;18.60;99.90;;;;;;8319086;28;20325;-65
2023/08/23 06:15:13;;;;;;;7.87;4.30;;;18.70;99.90;;;;;;8298401;28;20212;-66
2023/08/23 06:19:14;;;;;;;5.10;4.13;;;18.90;80.50;;;;;;8321008;28;20206;-66
2023/08/23 06:23:15;;;;;;;6.40;3.90;;;19.00;26.50;;;;;;8309125;28;20209;-65
2023/08/23 06:27:15;;;;;;;7.67;3.80;;;19.20;1.00;;;;;;8309354;28;20205;-65
2023/08/23 06:31:20;;;;;;;8.17;4.03;;;19.40;1.00;;;;;;8314131;28;20313;-65
2023/08/23 06:35:23;;;;;;;5.87;3.90;;;19.50;1.00;;;;;;8323296;28;20212;-66
2023/08/23 06:39:24;;;;;;;7.23;4.57;;;19.70;1.00;;;;;;8307877;28;20210;-65
2023/08/23 06:43:26;;;;;;;4.97;3.80;;;19.70;1.00;;;;;;8300725;28;20193;-65
2023/08/23 06:47:26;;;;;;;5.50;3.93;;;19.80;1.00;;;;;;8303891;28;20483;-66
2023/08/23 06:51:28;;;;;;;6.53;4.27;;;19.90;1.00;;;;;;8316974;28;20194;-65
2023/08/23 06:55:32;;;;;;;5.80;3.50;;;20.00;1.00;;;;;;8301334;28;20189;-66
2023/08/23 06:59:33;;;;;;;3.90;3.20;;;20.10;1.00;;;;;;8322144;28;20214;-65
2023/08/23 07:03:33;;;;;;;4.77;2.53;;;20.30;1.00;;;;;;8308216;28;20312;-67
2023/08/23 07:07:34;;;;;;;3.93;2.53;;;20.60;1.00;;;;;;8303294;28;20194;-65
2023/08/23 07:11:36;;;;;;;4.70;2.10;;;20.80;1.00;;;;;;8305271;28;20659;-66
2023/08/23 07:15:38;;;;;;;4.80;2.13;;;20.90;1.00;;;;;;8301818;28;20466;-67
2023/08/23 07:19:39;;;;;;;3.40;1.90;;;21.10;1.00;;;;;;8320369;28;20306;-67
2023/08/23 07:23:40;;;;;;;4.63;1.97;;;21.30;1.00;;;;;;8306512;28;20201;-67
2023/08/23 07:27:41;;;;;;;7.17;2.30;;;21.60;1.00;;;;;;8301286;28;20194;-66
2023/08/23 07:31:43;;;;;;;3.90;1.80;;;21.70;1.00;;;;;;8318033;28;20838;-66
2023/08/23 07:35:53;;;;;;;5.87;1.67;;;21.90;1.00;;;;;;8316195;28;20226;-67
2023/08/23 07:39:53;;;;;;;3.13;1.80;;;22.00;1.00;;;;;;8318891;28;20209;-69
2023/08/23 07:43:54;;;;;;;2.80;1.77;;;22.20;1.00;;;;;;8300792;28;20178;-68
2023/08/23 07:47:55;;;;;;;4.10;1.93;;;22.40;1.00;;;;;;8317091;28;20212;-70
2023/08/23 07:51:57;;;;;;;2.93;2.00;;;22.50;1.00;;;;;;8304052;28;20186;-68
2023/08/23 07:55:57;;;;;;;5.73;1.50;;;22.60;1.00;;;;;;8302781;28;20190;-68
2023/08/23 07:59:59;;;;;;;3.30;1.77;;;22.80;1.00;;;;;;8314825;28;20214;-68
2023/08/23 08:04:00;;;;;;;4.03;2.13;;;23.00;1.00;;;;;;8323834;28;20189;-68
2023/08/23 08:08:02;;;;;;;5.00;1.93;;;23.10;1.00;;;;;;8311488;28;20208;-63
2023/08/23 08:12:03;;;;;;;5.73;2.20;;;23.20;99.90;;;;;;8311397;28;20214;-66
2023/08/23 08:16:13;;;;;;;6.70;2.07;;;23.30;99.90;;;;;;8308033;28;20301;-70
2023/08/23 08:20:13;;;;;;;4.33;2.20;;;23.40;99.90;;;;;;8310411;28;20207;-67
2023/08/23 08:24:14;;;;;;;2.73;1.30;;;23.50;99.90;;;;;;8310531;28;20227;-67
2023/08/23 08:28:15;;;;;;;8.03;2.00;;;23.60;99.90;;;;;;8320728;28;20202;-67
2023/08/23 08:32:16;;;;;;;3.57;1.70;;;23.80;99.90;;;;;;8324172;28;20217;-66
2023/08/23 08:36:16;;;;;;;3.40;1.60;;;23.90;99.90;;;;;;8311796;28;20192;-67
2023/08/23 08:40:18;;;;;;;2.70;1.57;;;24.00;99.90;;;;;;8311143;28;20209;-67
2023/08/23 08:44:19;;;;;;;4.32;1.40;;;24.10;99.90;;;;;;8311418;28;20269;-68
2023/08/23 08:48:19;;;;;;;5.38;2.33;;;24.20;99.90;;;;;;8316588;28;20327;-67
2023/08/23 08:52:24;;;;;;;4.13;1.60;;;24.30;99.90;;;;;;8328276;28;20221;-66
2023/08/23 08:56:26;;;;;;;6.83;1.60;;;24.10;99.90;;;;;;8323121;28;20182;-69
2023/08/23 09:00:28;;;;;;;2.80;1.50;;;24.20;99.90;;;;;;8326225;28;20214;-67
2023/08/23 09:04:29;;;;;;;4.13;1.50;;;24.30;99.90;;;;;;8315419;28;20324;-64
2023/08/23 09:08:31;;;;;;;2.20;1.77;;;24.60;99.90;;;;;;8303976;28;20213;-68
2023/08/23 09:12:32;;;;;;;5.68;1.45;;;24.60;99.90;;;;;;8306862;28;20276;-67
2023/08/23 09:16:32;;;;;;;3.33;1.50;;;24.60;99.90;;;;;;8312019;28;20196;-66
2023/08/23 09:20:35;;;;;;;3.85;1.50;;;24.80;99.90;;;;;;8321556;28;20209;-64
2023/08/23 09:24:36;;;;;;;3.22;1.25;;;24.70;99.90;;;;;;8323908;28;20193;-69
2023/08/23 09:28:38;;;;;;;3.60;1.60;;;24.70;99.90;;;;;;8310827;28;20194;-65
2023/08/23 09:32:40;;;;;;;3.15;1.60;;;24.80;99.90;;;;;;8330207;28;20642;-68
2023/08/23 09:36:41;;;;;;;3.10;1.75;;;25.00;99.90;;;;;;8322418;28;20216;-66
2023/08/23 09:40:42;;;;;;;3.30;1.42;;;25.00;99.90;;;;;;8303987;28;20210;-64
2023/08/23 09:44:43;;;;;;;3.50;1.60;;;24.90;99.90;;;;;;8324623;28;20208;-66
2023/08/23 09:48:47;;;;;;;2.90;1.60;;;24.80;99.90;;;;;;8323614;28;20273;-66
2023/08/23 09:53:12;;;;;;;1.83;1.30;;;24.70;99.90;;;;;;8313033;28;20305;-64
2023/08/23 09:57:13;;;;;;;3.85;1.83;;;24.70;99.90;;;;;;8312217;28;20186;-64
2023/08/23 10:01:15;;;;;;;3.03;1.40;;;25.00;99.90;;;;;;8311245;28;20222;-67
2023/08/23 10:05:18;;;;;;;6.22;1.60;;;25.20;99.90;;;;;;8303374;28;20212;-63
2023/08/23 10:09:21;;;;;;;3.47;1.63;;;25.40;99.90;;;;;;8323325;28;20213;-67
2023/08/23 10:13:23;;;;;;;2.17;1.52;;;25.60;99.90;;;;;;8306000;28;20241;-69
2023/08/23 10:17:24;;;;;;;3.53;1.70;;;25.50;99.90;;;;;;8325732;28;20194;-68
2023/08/23 10:21:27;;;;;;;3.55;1.38;;;25.40;99.90;;;;;;8301288;28;20236;-66
2023/08/23 10:25:32;;;;;;;2.05;1.40;;;25.60;99.90;;;;;;8323561;28;20194;-68
2023/08/23 10:29:34;;;;;;;4.45;1.30;;;25.70;99.90;;;;;;8303130;28;20197;-67
2023/08/23 10:33:39;;;;;;;3.58;1.63;;;25.90;99.90;;;;;;8320010;28;20281;-66
2023/08/23 10:37:41;;;;;;;4.22;1.77;;;26.00;99.90;;;;;;8305477;28;20471;-65
2023/08/23 10:41:42;;;;;;;3.88;1.65;;;25.80;99.90;;;;;;8304793;28;20210;-68
2023/08/23 10:46:06;;;;;;;3.60;1.88;;;25.50;99.90;;;;;;8319323;28;20192;-69
2023/08/23 10:50:07;;;;;;;3.20;1.50;;;25.50;99.90;;;;;;8331226;28;20185;-67
2023/08/23 10:54:11;;;;;;;3.00;1.70;;;25.50;99.90;;;;;;8325710;28;20186;-65
2023/08/23 10:58:13;;;;;;;1.83;1.40;;;25.50;99.90;;;;;;8322349;28;20213;-65
2023/08/23 11:02:15;;;;;;;1.77;1.20;;;25.80;99.90;;;;;;8323418;28;20201;-65
2023/08/23 11:06:16;;;;;;;3.72;1.58;;;26.00;99.90;;;;;;8335371;28;20216;-66
2023/08/23 11:10:17;;;;;;;2.67;1.70;;;26.00;99.90;;;;;;8303076;28;20245;-65
2023/08/23 11:14:18;;;;;;;1.67;1.20;;;25.80;99.90;;;;;;8327195;28;20193;-66
2023/08/23 11:18:20;;;;;;;3.03;1.33;;;25.90;99.90;;;;;;8332273;28;20237;-69
2023/08/23 11:22:24;;;;;;;2.65;1.50;;;26.10;99.90;;;;;;8319958;28;21084;-67
2023/08/23 11:26:25;;;;;;;3.13;1.75;;;26.40;99.90;;;;;;8327684;28;20240;-66
2023/08/23 11:30:27;;;;;;;3.92;1.63;;;26.60;99.90;;;;;;8325163;28;20357;-66
2023/08/23 11:34:27;;;;;;;5.47;1.77;;;26.80;99.90;;;;;;8321210;28;20182;-66
2023/08/23 11:38:29;;;;;;;3.58;1.65;;;26.90;99.90;;;;;;8323632;28;20216;-62
2023/08/23 11:42:30;;;;;;;6.10;3.30;;;26.90;99.90;;;;;;8325060;28;20182;-67
2023/08/23 11:46:31;;;;;;;3.13;1.65;;;26.90;99.90;;;;;;8335933;28;20212;-63
2023/08/23 11:50:32;;;;;;;4.47;1.67;;;27.10;99.90;;;;;;8339884;28;20275;-67
2023/08/23 11:54:33;;;;;;;2.47;1.52;;;27.20;99.90;;;;;;8313599;28;20182;-67
2023/08/23 11:58:33;;;;;;;3.47;1.70;;;27.20;99.90;;;;;;8316539;28;20201;-65
2023/08/23 12:02:35;;;;;;;2.58;1.50;;;27.10;99.90;;;;;;8316072;28;20218;-70
2023/08/23 12:06:36;;;;;;;4.60;1.92;;;27.20;99.90;;;;;;8344291;28;21176;-66
2023/08/23 12:10:36;;;;;;;3.05;1.77;;;27.20;99.90;;;;;;8323321;28;20249;-64
2023/08/23 12:14:37;;;;;;;2.85;1.55;;;26.90;99.90;;;;;;8339860;28;20189;-66
2023/08/23 12:18:38;;;;;;;3.55;1.50;;;26.80;99.90;;;;;;8335162;28;20255;-65
2023/08/23 12:22:45;;;;;;;3.92;1.90;;;26.60;99.90;;;;;;8331455;28;20190;-62
2023/08/23 12:26:45;;;;;;;3.08;1.60;;;26.40;99.90;;;;;;8315186;28;20191;-64
2023/08/23 12:30:46;;;;;;;3.80;1.40;;;26.60;99.90;;;;;;8336292;28;20335;-66
2023/08/23 12:34:47;;;;;;;1.67;1.48;;;26.90;99.90;;;;;;8318564;28;20190;-69
2023/08/23 12:38:49;;;;;;;3.92;1.35;;;27.30;99.90;;;;;;8336153;28;20197;-65
2023/08/23 12:42:49;;;;;;;3.03;1.55;;;27.80;99.90;;;;;;8328723;28;20181;-65
2023/08/23 12:46:50;;;;;;;3.30;1.58;;;27.90;99.90;;;;;;8314734;28;20280;-64
2023/08/23 12:50:51;;;;;;;2.00;1.40;;;28.00;99.90;;;;;;8323884;28;20201;-68
2023/08/23 12:54:52;;;;;;;3.65;1.50;;;28.00;99.90;;;;;;8319337;28;20183;-67
2023/08/23 12:58:52;;;;;;;3.75;1.52;;;28.00;99.90;;;;;;8333195;28;20247;-65
2023/08/23 13:02:53;;;;;;;2.17;1.45;;;28.30;99.90;;;;;;8321705;28;20216;-67
2023/08/23 13:06:54;;;;;;;3.45;1.25;;;28.90;99.90;;;;;;8331980;28;20265;-67
2023/08/23 13:10:55;;;;;;;3.33;1.50;;;29.40;99.90;;;;;;8319321;28;20300;-67
2023/08/23 13:14:56;;;;;;;1.45;1.20;;;29.70;99.90;;;;;;8318484;28;20186;-66
2023/08/23 13:18:57;;;;;;;2.42;1.52;;;29.50;99.90;;;;;;8326199;28;20214;-66
2023/08/23 13:22:58;;;;;;;1.38;1.27;;;29.50;99.90;;;;;;8335612;28;20281;-67
2023/08/23 13:26:59;;;;;;;2.17;1.42;;;29.50;99.90;;;;;;8331235;28;20186;-68
2023/08/23 13:30:59;;;;;;;3.40;1.50;;;29.40;99.90;;;;;;8333921;28;20186;-65
2023/08/23 13:35:00;;;;;;;3.35;1.45;;;29.40;99.90;;;;;;8316625;28;20203;-67
2023/08/23 13:39:01;;;;;;;2.97;1.55;;;29.40;99.90;;;;;;8313498;28;20210;-64
2023/08/23 13:43:02;;;;;;;2.10;1.35;;;28.80;99.90;;;;;;8313060;28;20178;-66
2023/08/23 13:47:02;;;;;;;2.35;1.60;;;28.50;99.90;;;;;;8326986;28;20181;-66
2023/08/23 13:51:04;;;;;;;2.03;1.45;;;28.40;99.90;;;;;;8316707;28;20249;-66
2023/08/23 13:55:05;;;;;;;3.42;1.50;;;28.50;99.90;;;;;;8320424;28;20272;-68
2023/08/23 13:59:06;;;;;;;2.40;1.40;;;28.40;99.90;;;;;;8328761;28;20217;-66
2023/08/23 14:03:07;;;;;;;1.73;1.38;;;28.20;99.90;;;;;;8327455;28;20274;-66
2023/08/23 14:07:08;;;;;;;2.42;1.45;;;28.00;99.90;;;;;;8324563;28;20186;-70
2023/08/23 14:11:09;;;;;;;1.30;1.20;;;28.00;99.90;;;;;;8330475;28;20210;-69
2023/08/23 14:15:10;;;;;;;2.45;1.50;;;28.00;99.90;;;;;;8320681;28;20202;-69
2023/08/23 14:19:11;;;;;;;3.35;1.45;;;28.20;99.90;;;;;;8326962;28;20360;-67
2023/08/23 14:23:12;;;;;;;2.72;1.30;;;28.40;99.90;;;;;;8313635;28;20198;-68
2023/08/23 14:27:14;;;;;;;2.65;1.00;;;28.60;99.90;;;;;;8326286;28;20186;-67
2023/08/23 14:31:14;;;;;;;4.30;1.40;;;28.70;99.90;;;;;;8310983;28;20285;-66
2023/08/23 14:35:19;;;;;;;2.45;1.40;;;28.70;99.90;;;;;;8309056;28;20185;-65
2023/08/23 14:39:20;;;;;;;2.42;1.20;;;28.70;99.90;;;;;;8330976;28;20221;-68
2023/08/23 14:43:21;;;;;;;2.15;1.27;;;28.70;99.90;;;;;;8312140;28;20191;-72
2023/08/23 14:47:22;;;;;;;1.83;1.20;;;28.70;99.90;;;;;;8328057;28;20185;-65
2023/08/23 14:51:23;;;;;;;1.42;0.98;;;28.70;99.90;;;;;;8305875;28;20204;-65
2023/08/23 14:55:25;;;;;;;3.00;1.35;;;28.90;99.90;;;;;;8316872;28;20399;-64
2023/08/23 14:59:26;;;;;;;2.85;1.13;;;29.20;99.90;;;;;;8325632;28;20651;-65
2023/08/23 15:03:27;;;;;;;2.45;1.13;;;29.10;99.90;;;;;;8322271;28;20663;-65
2023/08/23 15:07:27;;;;;;;3.40;1.10;;;28.90;99.90;;;;;;8309815;28;20189;-64
2023/08/23 15:11:28;;;;;;;3.00;1.15;;;29.00;99.90;;;;;;8322874;28;20321;-65
2023/08/23 15:15:29;;;;;;;2.40;1.33;;;28.80;99.90;;;;;;8321788;28;20182;-66
2023/08/23 15:19:30;;;;;;;1.58;1.00;;;29.10;99.90;;;;;;8323613;28;20213;-65
2023/08/23 15:23:30;;;;;;;3.03;1.20;;;29.10;99.90;;;;;;8320528;28;20199;-67
2023/08/23 15:27:31;;;;;;;2.00;0.90;;;29.10;99.90;;;;;;8310575;28;20187;-69
2023/08/23 15:31:32;;;;;;;1.63;1.27;;;29.00;99.90;;;;;;8313737;28;20197;-68
2023/08/23 15:35:33;;;;;;;1.17;0.98;;;28.90;99.90;;;;;;8322140;28;20190;-64
2023/08/23 15:39:36;;;;;;;2.08;1.48;;;28.90;99.90;;;;;;8304818;28;20201;-67
2023/08/23 15:43:37;;;;;;;2.83;1.20;;;28.80;99.90;;;;;;8325237;28;20194;-68
2023/08/23 15:47:38;;;;;;;1.30;0.95;;;28.80;99.90;;;;;;8325529;28;20181;-68
2023/08/23 15:51:39;;;;;;;2.53;1.13;;;28.80;99.90;;;;;;8312530;28;20210;-67
2023/08/23 15:55:40;;;;;;;1.55;1.08;;;29.10;99.90;;;;;;8322586;28;20564;-67
2023/08/23 15:59:41;;;;;;;3.15;1.42;;;29.30;99.90;;;;;;8313541;28;20212;-71
2023/08/23 16:03:41;;;;;;;3.20;1.08;;;29.40;99.90;;;;;;8309544;28;20280;-69
2023/08/23 16:07:42;;;;;;;2.72;1.08;;;29.30;99.90;;;;;;8305282;28;20301;-69
2023/08/23 16:11:43;;;;;;;2.08;1.20;;;29.10;99.90;;;;;;8320123;28;20257;-66
2023/08/23 16:15:46;;;;;;;1.95;1.50;;;28.80;99.90;;;;;;8316920;28;20191;-66
2023/08/23 16:19:47;;;;;;;2.08;1.15;;;28.50;99.90;;;;;;8315251;28;20206;-68
2023/08/23 16:23:48;;;;;;;2.65;1.13;;;28.20;99.90;;;;;;8315104;28;20324;-69
2023/08/23 16:27:49;;;;;;;2.15;1.20;;;28.00;99.90;;;;;;8332287;28;20382;-65
2023/08/23 16:31:49;;;;;;;2.65;1.45;;;27.70;99.90;;;;;;8315474;28;20198;-65
2023/08/23 16:35:52;;;;;;;2.17;1.75;;;27.40;99.90;;;;;;8314322;28;20218;-66
2023/08/23 16:39:52;;;;;;;2.50;1.85;;;27.10;99.90;;;;;;8317055;28;20225;-65
2023/08/23 16:43:53;;;;;;;2.53;1.48;;;27.00;99.90;;;;;;8338359;28;20521;-66
2023/08/23 16:47:54;;;;;;;2.03;1.40;;;27.10;99.90;;;;;;8310694;28;20190;-66
2023/08/23 16:51:55;;;;;;;1.90;1.30;;;27.00;99.90;;;;;;8307819;28;20830;-68
2023/08/23 16:55:56;;;;;;;4.70;1.42;;;26.90;99.90;;;;;;8317360;28;20209;-67
2023/08/23 16:59:56;;;;;;;2.40;1.73;;;26.70;99.90;;;;;;8316701;28;20218;-65
2023/08/23 17:03:57;;;;;;;5.22;2.00;;;26.50;99.90;;;;;;8314665;28;20217;-65
2023/08/23 17:07:58;;;;;;;2.72;1.70;;;26.20;99.90;;;;;;8315184;28;20194;-66
2023/08/23 17:11:59;;;;;;;1.98;1.33;;;25.90;99.90;;;;;;8323728;28;20207;-66
2023/08/23 17:15:59;;;;;;;2.60;1.13;;;25.70;99.90;;;;;;8327024;28;20194;-65
2023/08/23 17:20:00;;;;;;;2.95;1.67;;;25.30;99.90;;;;;;8304551;28;20236;-67
2023/08/23 17:24:01;;;;;;;2.43;1.33;;;25.00;99.90;;;;;;8305589;28;20191;-65
2023/08/23 17:28:03;;;;;;;3.27;1.50;;;24.60;99.90;;;;;;8327714;28;20185;-64
2023/08/23 17:32:04;;;;;;;7.00;1.70;;;24.30;99.90;;;;;;8302382;28;20250;-65
2023/08/23 17:36:04;;;;;;;4.57;1.60;;;24.00;99.90;;;;;;8321498;28;20581;-65
2023/08/23 17:40:06;;;;;;;2.17;1.57;;;23.60;99.90;;;;;;8328264;28;20210;-66
2023/08/23 17:44:07;;;;;;;2.30;1.50;;;23.30;99.90;;;;;;8303052;28;20218;-65
2023/08/23 17:48:08;;;;;;;1.77;1.60;;;23.10;99.90;;;;;;8330638;28;20186;-65
2023/08/23 17:52:08;;;;;;;1.73;1.30;;;22.80;99.90;;;;;;8296746;28;20197;-65
2023/08/23 17:56:09;;;;;;;1.70;1.47;;;22.60;99.90;;;;;;8328088;28;20238;-66
2023/08/23 18:00:11;;;;;;;2.03;1.57;;;22.30;1.00;;;;;;8329577;28;20214;-65
2023/08/23 18:04:11;;;;;;;1.83;1.30;;;22.00;1.00;;;;;;8301289;28;20331;-66
2023/08/23 18:08:12;;;;;;;3.03;1.93;;;21.70;1.00;;;;;;8327393;28;20186;-66
2023/08/23 18:12:13;;;;;;;1.50;1.40;;;21.40;1.00;;;;;;8310034;28;20208;-66
2023/08/23 18:16:14;;;;;;;2.10;1.90;;;21.20;1.00;;;;;;8325293;28;20863;-65
2023/08/23 18:20:14;;;;;;;2.43;1.93;;;21.00;1.00;;;;;;8312184;28;20320;-66
2023/08/23 18:24:15;;;;;;;4.80;2.00;;;20.70;1.00;;;;;;8315424;28;20209;-65
2023/08/23 18:28:16;;;;;;;2.93;2.10;;;20.50;1.00;;;;;;8326742;28;20181;-66
2023/08/23 18:32:17;;;;;;;2.97;1.60;;;20.40;1.00;;;;;;8325345;28;20186;-64
2023/08/23 18:36:18;;;;;;;2.23;1.90;;;20.40;1.00;;;;;;8329645;28;20187;-64
2023/08/23 18:40:18;;;;;;;4.50;2.00;;;20.20;1.00;;;;;;8323056;28;20291;-65
2023/08/23 18:44:19;;;;;;;2.10;1.90;;;20.20;1.00;;;;;;8327782;28;20243;-65
2023/08/23 18:48:20;;;;;;;1.87;1.70;;;20.10;1.00;;;;;;8302818;28;20189;-65
2023/08/23 18:52:24;;;;;;;2.00;1.80;;;20.00;1.00;;;;;;8323486;28;20212;-65
2023/08/23 18:56:25;;;;;;;1.90;1.70;;;19.90;1.00;;;;;;8327033;28;20193;-65
2023/08/23 19:00:25;;;;;;;3.20;1.93;;;19.80;1.00;;;;;;8329190;28;20210;-65
2023/08/23 19:04:26;;;;;;;2.30;1.70;;;19.60;1.00;;;;;;8322758;28;20183;-65
2023/08/23 19:08:27;;;;;;;2.23;1.90;;;19.50;1.00;;;;;;8325174;28;20231;-65
2023/08/23 19:12:28;;;;;;;4.23;2.10;;;19.30;1.00;;;;;;8309403;28;20183;-64
2023/08/23 19:16:29;;;;;;;1.83;1.40;;;19.20;1.00;;;;;;8323454;28;20183;-65
2023/08/23 19:20:30;;;;;;;2.90;1.90;;;19.00;1.00;;;;;;8327381;28;20230;-65
2023/08/23 19:24:30;;;;;;;2.40;2.03;;;19.00;1.00;;;;;;8304868;28;20198;-65
2023/08/23 19:28:33;;;;;;;3.93;2.00;;;18.90;1.00;;;;;;8314513;28;20198;-64
2023/08/23 19:32:34;;;;;;;4.00;2.63;;;18.80;1.00;;;;;;8309334;28;20182;-65
2023/08/23 19:36:36;;;;;;;3.60;2.30;;;18.70;1.00;;;;;;8323010;28;20192;-65
2023/08/23 19:40:37;;;;;;;4.77;2.20;;;18.60;1.00;;;;;;8323204;28;20339;-66
2023/08/23 19:44:40;;;;;;;4.50;2.27;;;18.50;13.00;;;;;;8325101;28;20188;-66
2023/08/23 19:48:40;;;;;;;2.30;2.10;;;18.40;38.60;;;;;;8320957;28;20197;-65
2023/08/23 19:52:42;;;;;;;2.17;1.97;;;18.20;62.80;;;;;;8327531;28;20301;-64
2023/08/23 19:56:42;;;;;;;2.47;2.27;;;18.10;75.30;;;;;;8315316;28;20186;-66
2023/08/23 20:00:43;;;;;;;2.60;2.20;;;18.00;98.10;;;;;;8316426;28;20217;-65
2023/08/23 20:04:44;;;;;;;4.80;2.43;;;17.90;99.90;;;;;;8311127;28;20517;-66
2023/08/23 20:08:45;;;;;;;3.53;2.40;;;17.90;99.90;;;;;;8331816;28;20194;-66
2023/08/23 20:12:46;;;;;;;2.50;2.20;;;17.80;99.90;;;;;;8330659;28;20284;-66
2023/08/23 20:16:46;;;;;;;3.13;2.33;;;17.70;99.90;;;;;;8319302;28;20197;-65
2023/08/23 20:20:47;;;;;;;2.70;2.30;;;17.60;99.90;;;;;;8315274;28;20207;-65
2023/08/23 20:24:50;;;;;;;5.33;2.87;;;17.40;99.90;;;;;;8318620;28;20290;-65
2023/08/23 20:28:51;;;;;;;3.60;2.90;;;17.40;99.90;;;;;;8329780;28;20232;-66
2023/08/23 20:32:54;;;;;;;3.60;2.80;;;17.30;99.90;;;;;;8305084;28;20190;-66
2023/08/23 20:36:55;;;;;;;2.50;2.30;;;17.20;99.90;;;;;;8307826;28;20182;-67
2023/08/23 20:40:56;;;;;;;3.00;2.33;;;17.10;99.90;;;;;;8327413;28;20209;-66
2023/08/23 20:44:57;;;;;;;2.90;2.63;;;17.10;99.90;;;;;;8322240;28;20186;-66
2023/08/23 20:48:58;;;;;;;2.87;2.57;;;17.00;99.90;;;;;;8322055;28;20206;-66
2023/08/23 20:52:58;;;;;;;2.80;2.60;;;17.00;99.90;;;;;;8337140;28;20189;-66
2023/08/23 20:56:59;;;;;;;3.17;2.77;;;16.90;99.90;;;;;;8324068;28;20295;-66